sensor_id;sensor_type;location;lat;lon;timestamp;P1;durP1;ratioP1;P2;durP2;ratioP2
78148;SDS011;67396;42.664;23.382;2024-03-07T00:07:37;20.83;;;11.23;;
78148;SDS011;67396;42.664;23.382;2024-03-07T00:13:11;19.90;;;11.73;;
78148;SDS011;67396;42.664;23.382;2024-03-07T00:21:36;22.42;;;13.18;;
78148;SDS011;67396;42.664;23.382;2024-03-07T01:28:12;20.95;;;12.15;;
78148;SDS011;67396;42.664;23.382;2024-03-07T01:45:12;19.50;;;11.13;;
78148;SDS011;67396;42.664;23.382;2024-03-07T01:47:38;21.38;;;11.25;;
78148;SDS011;67396;42.664;23.382;2024-03-07T01:50:04;20.73;;;11.20;;
78148;SDS011;67396;42.664;23.382;2024-03-07T01:52:30;18.75;;;10.45;;
78148;SDS011;67396;42.664;23.382;2024-03-07T01:54:56;17.25;;;10.45;;
78148;SDS011;67396;42.664;23.382;2024-03-07T01:57:25;21.10;;;10.27;;
78148;SDS011;67396;42.664;23.382;2024-03-07T01:59:56;17.35;;;10.10;;
78148;SDS011;67396;42.664;23.382;2024-03-07T02:02:26;20.25;;;12.40;;
78148;SDS011;67396;42.664;23.382;2024-03-07T02:04:52;20.90;;;10.48;;
78148;SDS011;67396;42.664;23.382;2024-03-07T02:07:18;18.92;;;10.50;;
78148;SDS011;67396;42.664;23.382;2024-03-07T02:09:44;17.83;;;10.57;;
78148;SDS011;67396;42.664;23.382;2024-03-07T02:12:10;24.33;;;12.70;;
78148;SDS011;67396;42.664;23.382;2024-03-07T02:14:42;17.30;;;9.38;;
78148;SDS011;67396;42.664;23.382;2024-03-07T02:17:12;17.63;;;8.43;;
78148;SDS011;67396;42.664;23.382;2024-03-07T02:30:18;4.90;;;2.88;;
78148;SDS011;67396;42.664;23.382;2024-03-07T02:37:56;9.10;;;5.68;;
78148;SDS011;67396;42.664;23.382;2024-03-07T02:43:40;10.60;;;6.13;;
78148;SDS011;67396;42.664;23.382;2024-03-07T02:46:07;6.18;;;3.75;;
78148;SDS011;67396;42.664;23.382;2024-03-07T02:48:40;3.97;;;2.38;;
78148;SDS011;67396;42.664;23.382;2024-03-07T02:51:09;3.88;;;2.03;;
78148;SDS011;67396;42.664;23.382;2024-03-07T02:53:34;1.65;;;1.15;;
78148;SDS011;67396;42.664;23.382;2024-03-07T02:56:03;2.47;;;1.42;;
78148;SDS011;67396;42.664;23.382;2024-03-07T02:58:29;1.23;;;0.75;;
78148;SDS011;67396;42.664;23.382;2024-03-07T03:00:57;1.55;;;1.05;;
78148;SDS011;67396;42.664;23.382;2024-03-07T03:03:25;2.88;;;0.93;;
78148;SDS011;67396;42.664;23.382;2024-03-07T03:05:56;1.77;;;0.82;;
78148;SDS011;67396;42.664;23.382;2024-03-07T03:08:23;1.67;;;0.85;;
78148;SDS011;67396;42.664;23.382;2024-03-07T03:10:49;1.75;;;0.90;;
78148;SDS011;67396;42.664;23.382;2024-03-07T03:13:16;5.95;;;1.00;;
78148;SDS011;67396;42.664;23.382;2024-03-07T03:15:42;1.38;;;0.77;;
78148;SDS011;67396;42.664;23.382;2024-03-07T03:18:08;1.00;;;0.80;;
78148;SDS011;67396;42.664;23.382;2024-03-07T03:20:40;0.68;;;0.60;;
78148;SDS011;67396;42.664;23.382;2024-03-07T03:26:02;0.80;;;0.50;;
78148;SDS011;67396;42.664;23.382;2024-03-07T03:28:28;0.80;;;0.38;;
78148;SDS011;67396;42.664;23.382;2024-03-07T03:30:57;0.77;;;0.70;;
78148;SDS011;67396;42.664;23.382;2024-03-07T03:33:33;1.75;;;0.63;;
78148;SDS011;67396;42.664;23.382;2024-03-07T03:36:33;0.93;;;0.55;;
78148;SDS011;67396;42.664;23.382;2024-03-07T03:38:58;0.98;;;0.90;;
78148;SDS011;67396;42.664;23.382;2024-03-07T03:44:18;2.03;;;0.70;;
78148;SDS011;67396;42.664;23.382;2024-03-07T03:46:47;1.63;;;0.85;;
78148;SDS011;67396;42.664;23.382;2024-03-07T03:49:19;2.58;;;0.65;;
78148;SDS011;67396;42.664;23.382;2024-03-07T03:51:44;0.88;;;0.63;;
78148;SDS011;67396;42.664;23.382;2024-03-07T03:54:14;2.20;;;0.52;;
78148;SDS011;67396;42.664;23.382;2024-03-07T03:56:40;0.82;;;0.35;;
78148;SDS011;67396;42.664;23.382;2024-03-07T03:59:05;1.80;;;0.80;;
78148;SDS011;67396;42.664;23.382;2024-03-07T04:01:31;1.85;;;0.68;;
78148;SDS011;67396;42.664;23.382;2024-03-07T04:03:57;0.55;;;0.50;;
78148;SDS011;67396;42.664;23.382;2024-03-07T04:06:23;1.13;;;0.75;;
78148;SDS011;67396;42.664;23.382;2024-03-07T04:08:49;0.52;;;0.40;;
78148;SDS011;67396;42.664;23.382;2024-03-07T04:11:15;0.98;;;0.52;;
78148;SDS011;67396;42.664;23.382;2024-03-07T04:13:41;1.42;;;0.73;;
78148;SDS011;67396;42.664;23.382;2024-03-07T04:16:10;1.30;;;0.70;;
78148;SDS011;67396;42.664;23.382;2024-03-07T04:18:44;1.30;;;0.85;;
78148;SDS011;67396;42.664;23.382;2024-03-07T04:21:21;0.82;;;0.60;;
78148;SDS011;67396;42.664;23.382;2024-03-07T04:23:49;1.33;;;0.80;;
78148;SDS011;67396;42.664;23.382;2024-03-07T04:28:52;3.20;;;0.88;;
78148;SDS011;67396;42.664;23.382;2024-03-07T04:31:17;1.52;;;0.90;;
78148;SDS011;67396;42.664;23.382;2024-03-07T04:36:34;3.17;;;0.82;;
78148;SDS011;67396;42.664;23.382;2024-03-07T04:52:35;3.22;;;1.77;;
78148;SDS011;67396;42.664;23.382;2024-03-07T04:55:12;3.33;;;1.60;;
78148;SDS011;67396;42.664;23.382;2024-03-07T05:04:14;5.93;;;3.47;;
78148;SDS011;67396;42.664;23.382;2024-03-07T05:06:44;3.65;;;2.70;;
78148;SDS011;67396;42.664;23.382;2024-03-07T05:09:13;5.80;;;2.95;;
78148;SDS011;67396;42.664;23.382;2024-03-07T05:11:49;5.88;;;2.97;;
78148;SDS011;67396;42.664;23.382;2024-03-07T05:14:18;5.38;;;3.05;;
78148;SDS011;67396;42.664;23.382;2024-03-07T05:16:50;4.40;;;2.25;;
78148;SDS011;67396;42.664;23.382;2024-03-07T05:22:00;3.40;;;2.07;;
78148;SDS011;67396;42.664;23.382;2024-03-07T05:41:59;5.43;;;3.03;;
78148;SDS011;67396;42.664;23.382;2024-03-07T05:53:06;2.80;;;1.88;;
78148;SDS011;67396;42.664;23.382;2024-03-07T05:55:33;2.33;;;1.92;;
78148;SDS011;67396;42.664;23.382;2024-03-07T05:58:02;4.75;;;2.80;;
78148;SDS011;67396;42.664;23.382;2024-03-07T06:00:30;3.58;;;2.25;;
78148;SDS011;67396;42.664;23.382;2024-03-07T06:02:56;5.10;;;3.07;;
78148;SDS011;67396;42.664;23.382;2024-03-07T06:05:21;5.50;;;3.20;;
78148;SDS011;67396;42.664;23.382;2024-03-07T06:15:35;5.10;;;2.17;;
78148;SDS011;67396;42.664;23.382;2024-03-07T06:18:00;7.10;;;3.15;;
78148;SDS011;67396;42.664;23.382;2024-03-07T06:20:26;7.63;;;3.33;;
78148;SDS011;67396;42.664;23.382;2024-03-07T06:22:54;4.63;;;3.20;;
78148;SDS011;67396;42.664;23.382;2024-03-07T06:25:19;6.32;;;3.80;;
78148;SDS011;67396;42.664;23.382;2024-03-07T06:28:03;5.05;;;3.67;;
78148;SDS011;67396;42.664;23.382;2024-03-07T06:30:32;6.50;;;4.00;;
78148;SDS011;67396;42.664;23.382;2024-03-07T06:32:57;7.80;;;3.95;;
78148;SDS011;67396;42.664;23.382;2024-03-07T06:35:23;5.10;;;3.55;;
78148;SDS011;67396;42.664;23.382;2024-03-07T06:37:51;6.63;;;3.55;;
78148;SDS011;67396;42.664;23.382;2024-03-07T06:40:17;4.63;;;3.40;;
78148;SDS011;67396;42.664;23.382;2024-03-07T06:45:54;9.30;;;3.40;;
78148;SDS011;67396;42.664;23.382;2024-03-07T06:48:20;4.07;;;2.65;;
78148;SDS011;67396;42.664;23.382;2024-03-07T06:50:46;5.88;;;2.83;;
78148;SDS011;67396;42.664;23.382;2024-03-07T06:53:11;4.57;;;2.60;;
78148;SDS011;67396;42.664;23.382;2024-03-07T06:55:37;4.35;;;2.83;;
78148;SDS011;67396;42.664;23.382;2024-03-07T06:58:03;3.78;;;2.78;;
78148;SDS011;67396;42.664;23.382;2024-03-07T07:00:30;4.95;;;3.20;;
78148;SDS011;67396;42.664;23.382;2024-03-07T07:02:57;4.40;;;2.03;;
78148;SDS011;67396;42.664;23.382;2024-03-07T07:05:23;6.90;;;2.58;;
78148;SDS011;67396;42.664;23.382;2024-03-07T07:07:48;4.82;;;2.30;;
78148;SDS011;67396;42.664;23.382;2024-03-07T07:10:14;5.10;;;2.60;;
78148;SDS011;67396;42.664;23.382;2024-03-07T07:12:48;4.75;;;2.65;;
78148;SDS011;67396;42.664;23.382;2024-03-07T07:15:15;4.10;;;2.20;;
78148;SDS011;67396;42.664;23.382;2024-03-07T07:17:43;5.60;;;2.72;;
78148;SDS011;67396;42.664;23.382;2024-03-07T07:20:12;6.45;;;2.72;;
78148;SDS011;67396;42.664;23.382;2024-03-07T07:22:40;4.50;;;2.35;;
78148;SDS011;67396;42.664;23.382;2024-03-07T07:25:06;3.60;;;2.67;;
78148;SDS011;67396;42.664;23.382;2024-03-07T07:30:12;4.53;;;2.80;;
78148;SDS011;67396;42.664;23.382;2024-03-07T07:32:39;6.15;;;2.95;;
78148;SDS011;67396;42.664;23.382;2024-03-07T07:35:05;5.53;;;3.35;;
78148;SDS011;67396;42.664;23.382;2024-03-07T07:37:36;4.45;;;2.83;;
78148;SDS011;67396;42.664;23.382;2024-03-07T07:40:15;9.05;;;3.22;;
78148;SDS011;67396;42.664;23.382;2024-03-07T07:42:45;4.15;;;1.48;;
78148;SDS011;67396;42.664;23.382;2024-03-07T07:45:12;4.07;;;2.67;;
78148;SDS011;67396;42.664;23.382;2024-03-07T07:47:42;4.60;;;2.58;;
78148;SDS011;67396;42.664;23.382;2024-03-07T07:50:10;4.22;;;2.50;;
78148;SDS011;67396;42.664;23.382;2024-03-07T07:52:42;5.57;;;2.60;;
78148;SDS011;67396;42.664;23.382;2024-03-07T07:55:15;6.05;;;2.20;;
78148;SDS011;67396;42.664;23.382;2024-03-07T07:57:45;5.55;;;2.70;;
78148;SDS011;67396;42.664;23.382;2024-03-07T08:00:12;8.50;;;4.38;;
78148;SDS011;67396;42.664;23.382;2024-03-07T08:02:47;12.75;;;6.53;;
78148;SDS011;67396;42.664;23.382;2024-03-07T08:05:26;7.68;;;4.05;;
78148;SDS011;67396;42.664;23.382;2024-03-07T08:08:33;6.43;;;2.47;;
78148;SDS011;67396;42.664;23.382;2024-03-07T08:11:02;4.43;;;2.40;;
78148;SDS011;67396;42.664;23.382;2024-03-07T08:13:28;3.05;;;1.77;;
78148;SDS011;67396;42.664;23.382;2024-03-07T08:16:01;3.15;;;1.80;;
78148;SDS011;67396;42.664;23.382;2024-03-07T08:18:30;4.03;;;2.38;;
78148;SDS011;67396;42.664;23.382;2024-03-07T08:20:56;3.22;;;2.13;;
78148;SDS011;67396;42.664;23.382;2024-03-07T08:23:22;3.63;;;2.70;;
78148;SDS011;67396;42.664;23.382;2024-03-07T08:25:50;5.88;;;3.05;;
78148;SDS011;67396;42.664;23.382;2024-03-07T08:28:16;2.97;;;1.80;;
78148;SDS011;67396;42.664;23.382;2024-03-07T08:30:42;4.05;;;1.95;;
78148;SDS011;67396;42.664;23.382;2024-03-07T08:33:08;4.57;;;2.13;;
78148;SDS011;67396;42.664;23.382;2024-03-07T08:35:33;2.78;;;1.45;;
78148;SDS011;67396;42.664;23.382;2024-03-07T08:37:59;5.45;;;1.83;;
78148;SDS011;67396;42.664;23.382;2024-03-07T08:40:25;12.85;;;3.75;;
78148;SDS011;67396;42.664;23.382;2024-03-07T08:42:56;41.53;;;15.63;;
78148;SDS011;67396;42.664;23.382;2024-03-07T08:45:22;52.90;;;30.02;;
78148;SDS011;67396;42.664;23.382;2024-03-07T08:48:08;6.07;;;4.00;;
78148;SDS011;67396;42.664;23.382;2024-03-07T08:50:34;3.67;;;2.47;;
78148;SDS011;67396;42.664;23.382;2024-03-07T08:53:03;3.47;;;1.90;;
78148;SDS011;67396;42.664;23.382;2024-03-07T08:55:31;2.83;;;1.60;;
78148;SDS011;67396;42.664;23.382;2024-03-07T08:57:57;4.20;;;1.73;;
78148;SDS011;67396;42.664;23.382;2024-03-07T09:00:22;3.50;;;2.10;;
78148;SDS011;67396;42.664;23.382;2024-03-07T09:02:55;3.97;;;2.08;;
78148;SDS011;67396;42.664;23.382;2024-03-07T09:05:24;4.78;;;1.83;;
78148;SDS011;67396;42.664;23.382;2024-03-07T09:07:51;3.03;;;2.20;;
78148;SDS011;67396;42.664;23.382;2024-03-07T09:10:17;3.58;;;2.03;;
78148;SDS011;67396;42.664;23.382;2024-03-07T09:12:44;3.95;;;2.25;;
78148;SDS011;67396;42.664;23.382;2024-03-07T09:15:11;2.58;;;1.70;;
78148;SDS011;67396;42.664;23.382;2024-03-07T09:17:37;7.10;;;2.55;;
78148;SDS011;67396;42.664;23.382;2024-03-07T09:20:04;5.55;;;2.45;;
78148;SDS011;67396;42.664;23.382;2024-03-07T09:22:31;3.97;;;2.35;;
78148;SDS011;67396;42.664;23.382;2024-03-07T09:24:57;3.88;;;2.70;;
78148;SDS011;67396;42.664;23.382;2024-03-07T09:27:23;3.08;;;1.80;;
78148;SDS011;67396;42.664;23.382;2024-03-07T09:29:49;3.75;;;2.50;;
78148;SDS011;67396;42.664;23.382;2024-03-07T09:32:15;3.55;;;2.00;;
78148;SDS011;67396;42.664;23.382;2024-03-07T09:34:40;4.97;;;2.70;;
78148;SDS011;67396;42.664;23.382;2024-03-07T09:37:06;4.72;;;2.40;;
78148;SDS011;67396;42.664;23.382;2024-03-07T09:39:34;4.40;;;1.90;;
78148;SDS011;67396;42.664;23.382;2024-03-07T09:42:01;3.13;;;2.08;;
78148;SDS011;67396;42.664;23.382;2024-03-07T09:44:38;4.57;;;2.13;;
78148;SDS011;67396;42.664;23.382;2024-03-07T09:47:07;2.45;;;1.02;;
78148;SDS011;67396;42.664;23.382;2024-03-07T09:49:33;4.05;;;1.70;;
78148;SDS011;67396;42.664;23.382;2024-03-07T09:52:01;7.78;;;2.50;;
78148;SDS011;67396;42.664;23.382;2024-03-07T09:54:33;3.88;;;2.70;;
78148;SDS011;67396;42.664;23.382;2024-03-07T09:57:00;6.10;;;3.05;;
78148;SDS011;67396;42.664;23.382;2024-03-07T09:59:28;4.20;;;2.60;;
78148;SDS011;67396;42.664;23.382;2024-03-07T10:01:57;5.75;;;3.00;;
78148;SDS011;67396;42.664;23.382;2024-03-07T10:04:48;3.97;;;2.72;;
78148;SDS011;67396;42.664;23.382;2024-03-07T10:07:16;4.35;;;2.88;;
78148;SDS011;67396;42.664;23.382;2024-03-07T10:09:43;5.88;;;3.17;;
78148;SDS011;67396;42.664;23.382;2024-03-07T10:12:09;10.07;;;5.60;;
78148;SDS011;67396;42.664;23.382;2024-03-07T10:14:37;11.55;;;7.47;;
78148;SDS011;67396;42.664;23.382;2024-03-07T10:17:04;13.20;;;7.78;;
78148;SDS011;67396;42.664;23.382;2024-03-07T10:19:30;8.50;;;4.18;;
78148;SDS011;67396;42.664;23.382;2024-03-07T10:21:56;5.85;;;4.00;;
78148;SDS011;67396;42.664;23.382;2024-03-07T10:24:26;7.22;;;3.78;;
78148;SDS011;67396;42.664;23.382;2024-03-07T10:26:53;8.20;;;2.80;;
78148;SDS011;67396;42.664;23.382;2024-03-07T10:29:21;4.38;;;2.95;;
78148;SDS011;67396;42.664;23.382;2024-03-07T10:31:48;3.28;;;1.83;;
78148;SDS011;67396;42.664;23.382;2024-03-07T10:34:15;4.78;;;2.58;;
78148;SDS011;67396;42.664;23.382;2024-03-07T10:36:47;6.57;;;2.72;;
78148;SDS011;67396;42.664;23.382;2024-03-07T10:39:12;6.65;;;2.67;;
78148;SDS011;67396;42.664;23.382;2024-03-07T10:41:46;6.32;;;2.42;;
78148;SDS011;67396;42.664;23.382;2024-03-07T10:44:20;2.97;;;2.38;;
78148;SDS011;67396;42.664;23.382;2024-03-07T10:46:54;4.43;;;2.10;;
78148;SDS011;67396;42.664;23.382;2024-03-07T10:49:22;4.07;;;2.50;;
78148;SDS011;67396;42.664;23.382;2024-03-07T10:55:13;8.93;;;3.20;;
78148;SDS011;67396;42.664;23.382;2024-03-07T10:58:02;4.55;;;2.45;;
78148;SDS011;67396;42.664;23.382;2024-03-07T11:00:49;4.22;;;2.10;;
78148;SDS011;67396;42.664;23.382;2024-03-07T11:03:20;4.93;;;2.53;;
78148;SDS011;67396;42.664;23.382;2024-03-07T11:05:45;2.97;;;2.30;;
78148;SDS011;67396;42.664;23.382;2024-03-07T11:08:12;4.18;;;2.22;;
78148;SDS011;67396;42.664;23.382;2024-03-07T11:10:39;4.82;;;2.50;;
78148;SDS011;67396;42.664;23.382;2024-03-07T11:13:09;7.55;;;3.15;;
78148;SDS011;67396;42.664;23.382;2024-03-07T11:15:37;4.43;;;2.33;;
78148;SDS011;67396;42.664;23.382;2024-03-07T11:18:07;4.72;;;2.83;;
78148;SDS011;67396;42.664;23.382;2024-03-07T11:20:38;5.53;;;3.05;;
78148;SDS011;67396;42.664;23.382;2024-03-07T11:28:32;4.63;;;2.83;;
78148;SDS011;67396;42.664;23.382;2024-03-07T11:31:09;6.38;;;3.83;;
78148;SDS011;67396;42.664;23.382;2024-03-07T11:36:41;4.30;;;2.83;;
78148;SDS011;67396;42.664;23.382;2024-03-07T11:39:38;6.88;;;3.03;;
78148;SDS011;67396;42.664;23.382;2024-03-07T11:42:18;7.28;;;3.63;;
78148;SDS011;67396;42.664;23.382;2024-03-07T11:44:57;6.28;;;3.45;;
78148;SDS011;67396;42.664;23.382;2024-03-07T11:47:24;5.30;;;3.38;;
78148;SDS011;67396;42.664;23.382;2024-03-07T11:49:50;6.70;;;4.05;;
78148;SDS011;67396;42.664;23.382;2024-03-07T11:52:17;9.40;;;3.42;;
78148;SDS011;67396;42.664;23.382;2024-03-07T11:54:44;8.07;;;3.45;;
78148;SDS011;67396;42.664;23.382;2024-03-07T11:57:15;3.90;;;2.72;;
78148;SDS011;67396;42.664;23.382;2024-03-07T11:59:42;4.22;;;2.95;;
78148;SDS011;67396;42.664;23.382;2024-03-07T12:02:14;7.50;;;3.83;;
78148;SDS011;67396;42.664;23.382;2024-03-07T12:04:46;6.53;;;3.33;;
78148;SDS011;67396;42.664;23.382;2024-03-07T12:07:15;4.93;;;2.80;;
78148;SDS011;67396;42.664;23.382;2024-03-07T12:09:43;5.03;;;3.22;;
78148;SDS011;67396;42.664;23.382;2024-03-07T12:12:15;3.95;;;2.28;;
78148;SDS011;67396;42.664;23.382;2024-03-07T12:14:46;4.57;;;3.05;;
78148;SDS011;67396;42.664;23.382;2024-03-07T12:17:13;6.22;;;3.40;;
78148;SDS011;67396;42.664;23.382;2024-03-07T12:19:41;5.45;;;3.10;;
78148;SDS011;67396;42.664;23.382;2024-03-07T12:22:11;4.85;;;2.80;;
78148;SDS011;67396;42.664;23.382;2024-03-07T12:24:40;4.95;;;3.00;;
78148;SDS011;67396;42.664;23.382;2024-03-07T12:27:07;6.53;;;3.38;;
78148;SDS011;67396;42.664;23.382;2024-03-07T12:29:35;5.78;;;3.13;;
78148;SDS011;67396;42.664;23.382;2024-03-07T12:32:04;6.78;;;3.30;;
78148;SDS011;67396;42.664;23.382;2024-03-07T12:34:31;8.93;;;5.18;;
78148;SDS011;67396;42.664;23.382;2024-03-07T12:37:01;6.07;;;3.67;;
78148;SDS011;67396;42.664;23.382;2024-03-07T12:39:28;8.63;;;5.00;;
78148;SDS011;67396;42.664;23.382;2024-03-07T12:42:03;7.95;;;4.95;;
78148;SDS011;67396;42.664;23.382;2024-03-07T12:44:39;8.02;;;5.25;;
78148;SDS011;67396;42.664;23.382;2024-03-07T12:47:09;7.30;;;3.92;;
78148;SDS011;67396;42.664;23.382;2024-03-07T12:49:39;7.72;;;4.78;;
78148;SDS011;67396;42.664;23.382;2024-03-07T12:52:05;9.57;;;4.82;;
78148;SDS011;67396;42.664;23.382;2024-03-07T12:54:35;8.07;;;5.03;;
78148;SDS011;67396;42.664;23.382;2024-03-07T12:57:09;10.70;;;5.65;;
78148;SDS011;67396;42.664;23.382;2024-03-07T12:59:37;11.90;;;6.50;;
78148;SDS011;67396;42.664;23.382;2024-03-07T13:02:10;12.38;;;4.35;;
78148;SDS011;67396;42.664;23.382;2024-03-07T13:04:37;8.98;;;4.35;;
78148;SDS011;67396;42.664;23.382;2024-03-07T13:07:03;7.97;;;4.75;;
78148;SDS011;67396;42.664;23.382;2024-03-07T13:09:30;6.95;;;4.75;;
78148;SDS011;67396;42.664;23.382;2024-03-07T13:11:59;12.82;;;4.68;;
78148;SDS011;67396;42.664;23.382;2024-03-07T13:14:29;5.40;;;2.85;;
78148;SDS011;67396;42.664;23.382;2024-03-07T13:17:03;9.00;;;3.55;;
78148;SDS011;67396;42.664;23.382;2024-03-07T13:19:32;9.02;;;4.18;;
78148;SDS011;67396;42.664;23.382;2024-03-07T13:21:58;8.20;;;4.85;;
78148;SDS011;67396;42.664;23.382;2024-03-07T13:24:24;8.05;;;3.67;;
78148;SDS011;67396;42.664;23.382;2024-03-07T13:26:52;6.43;;;4.47;;
78148;SDS011;67396;42.664;23.382;2024-03-07T13:29:19;7.13;;;3.75;;
78148;SDS011;67396;42.664;23.382;2024-03-07T13:31:51;8.27;;;3.78;;
78148;SDS011;67396;42.664;23.382;2024-03-07T13:34:21;5.90;;;3.00;;
78148;SDS011;67396;42.664;23.382;2024-03-07T13:36:46;5.85;;;3.40;;
78148;SDS011;67396;42.664;23.382;2024-03-07T13:39:12;4.47;;;3.00;;
78148;SDS011;67396;42.664;23.382;2024-03-07T13:41:39;7.65;;;4.10;;
78148;SDS011;67396;42.664;23.382;2024-03-07T13:44:07;7.13;;;4.10;;
78148;SDS011;67396;42.664;23.382;2024-03-07T13:46:33;7.53;;;3.83;;
78148;SDS011;67396;42.664;23.382;2024-03-07T13:49:02;7.63;;;4.85;;
78148;SDS011;67396;42.664;23.382;2024-03-07T13:51:39;6.45;;;3.35;;
78148;SDS011;67396;42.664;23.382;2024-03-07T13:54:19;6.38;;;4.32;;
78148;SDS011;67396;42.664;23.382;2024-03-07T13:59:54;8.90;;;4.85;;
78148;SDS011;67396;42.664;23.382;2024-03-07T14:14:23;6.20;;;2.97;;
78148;SDS011;67396;42.664;23.382;2024-03-07T14:23:18;9.15;;;5.60;;
78148;SDS011;67396;42.664;23.382;2024-03-07T14:31:06;8.15;;;5.40;;
78148;SDS011;67396;42.664;23.382;2024-03-07T14:36:37;8.85;;;4.72;;
78148;SDS011;67396;42.664;23.382;2024-03-07T14:39:05;13.10;;;6.03;;
78148;SDS011;67396;42.664;23.382;2024-03-07T14:41:53;10.45;;;5.45;;
78148;SDS011;67396;42.664;23.382;2024-03-07T14:44:23;73.72;;;34.80;;
78148;SDS011;67396;42.664;23.382;2024-03-07T14:46:53;29.08;;;14.68;;
78148;SDS011;67396;42.664;23.382;2024-03-07T14:49:24;9.23;;;5.57;;
78148;SDS011;67396;42.664;23.382;2024-03-07T14:51:50;12.27;;;6.20;;
78148;SDS011;67396;42.664;23.382;2024-03-07T14:54:19;9.68;;;6.53;;
78148;SDS011;67396;42.664;23.382;2024-03-07T14:56:46;10.15;;;5.22;;
78148;SDS011;67396;42.664;23.382;2024-03-07T14:59:12;10.32;;;6.28;;
78148;SDS011;67396;42.664;23.382;2024-03-07T15:01:38;9.80;;;5.50;;
78148;SDS011;67396;42.664;23.382;2024-03-07T15:04:04;11.55;;;5.93;;
78148;SDS011;67396;42.664;23.382;2024-03-07T15:06:35;15.02;;;8.77;;
78148;SDS011;67396;42.664;23.382;2024-03-07T15:09:03;10.60;;;6.25;;
78148;SDS011;67396;42.664;23.382;2024-03-07T15:11:35;13.07;;;5.95;;
78148;SDS011;67396;42.664;23.382;2024-03-07T15:14:05;8.48;;;5.32;;
78148;SDS011;67396;42.664;23.382;2024-03-07T15:16:34;11.75;;;6.32;;
78148;SDS011;67396;42.664;23.382;2024-03-07T15:19:03;9.30;;;5.45;;
78148;SDS011;67396;42.664;23.382;2024-03-07T15:21:29;12.85;;;5.93;;
78148;SDS011;67396;42.664;23.382;2024-03-07T15:23:58;12.13;;;5.50;;
78148;SDS011;67396;42.664;23.382;2024-03-07T15:26:25;10.88;;;6.38;;
78148;SDS011;67396;42.664;23.382;2024-03-07T15:28:51;12.10;;;6.28;;
78148;SDS011;67396;42.664;23.382;2024-03-07T15:31:17;8.90;;;4.70;;
78148;SDS011;67396;42.664;23.382;2024-03-07T15:33:47;7.25;;;4.50;;
78148;SDS011;67396;42.664;23.382;2024-03-07T15:36:14;7.18;;;4.45;;
78148;SDS011;67396;42.664;23.382;2024-03-07T15:38:41;7.60;;;4.20;;
78148;SDS011;67396;42.664;23.382;2024-03-07T15:41:07;8.10;;;3.42;;
78148;SDS011;67396;42.664;23.382;2024-03-07T15:43:35;9.60;;;5.15;;
78148;SDS011;67396;42.664;23.382;2024-03-07T15:46:01;8.75;;;4.68;;
78148;SDS011;67396;42.664;23.382;2024-03-07T15:48:29;9.13;;;5.22;;
78148;SDS011;67396;42.664;23.382;2024-03-07T15:50:56;7.80;;;4.45;;
78148;SDS011;67396;42.664;23.382;2024-03-07T15:53:25;7.75;;;4.15;;
78148;SDS011;67396;42.664;23.382;2024-03-07T15:55:51;8.00;;;5.05;;
78148;SDS011;67396;42.664;23.382;2024-03-07T15:58:17;10.18;;;5.05;;
78148;SDS011;67396;42.664;23.382;2024-03-07T16:00:43;12.55;;;6.18;;
78148;SDS011;67396;42.664;23.382;2024-03-07T16:03:12;8.75;;;5.32;;
78148;SDS011;67396;42.664;23.382;2024-03-07T16:05:38;12.35;;;6.78;;
78148;SDS011;67396;42.664;23.382;2024-03-07T16:08:06;13.85;;;7.38;;
78148;SDS011;67396;42.664;23.382;2024-03-07T16:10:34;17.35;;;8.25;;
78148;SDS011;67396;42.664;23.382;2024-03-07T16:13:02;13.32;;;7.43;;
78148;SDS011;67396;42.664;23.382;2024-03-07T16:15:31;18.80;;;8.15;;
78148;SDS011;67396;42.664;23.382;2024-03-07T16:17:58;12.02;;;6.90;;
78148;SDS011;67396;42.664;23.382;2024-03-07T16:20:24;15.20;;;8.23;;
78148;SDS011;67396;42.664;23.382;2024-03-07T16:22:51;14.35;;;7.20;;
78148;SDS011;67396;42.664;23.382;2024-03-07T16:25:17;26.27;;;8.93;;
78148;SDS011;67396;42.664;23.382;2024-03-07T16:27:45;16.40;;;8.77;;
78148;SDS011;67396;42.664;23.382;2024-03-07T16:32:41;16.88;;;8.95;;
78148;SDS011;67396;42.664;23.382;2024-03-07T16:35:12;18.40;;;9.70;;
78148;SDS011;67396;42.664;23.382;2024-03-07T16:37:42;21.52;;;9.07;;
78148;SDS011;67396;42.664;23.382;2024-03-07T16:40:12;19.33;;;9.98;;
78148;SDS011;67396;42.664;23.382;2024-03-07T16:42:47;18.45;;;9.25;;
78148;SDS011;67396;42.664;23.382;2024-03-07T16:45:16;22.98;;;11.80;;
78148;SDS011;67396;42.664;23.382;2024-03-07T16:47:44;27.58;;;14.25;;
78148;SDS011;67396;42.664;23.382;2024-03-07T16:50:13;34.03;;;15.82;;
78148;SDS011;67396;42.664;23.382;2024-03-07T16:52:39;29.55;;;15.50;;
78148;SDS011;67396;42.664;23.382;2024-03-07T16:55:06;23.40;;;11.05;;
78148;SDS011;67396;42.664;23.382;2024-03-07T16:57:36;24.52;;;11.85;;
78148;SDS011;67396;42.664;23.382;2024-03-07T17:00:04;22.13;;;12.05;;
78148;SDS011;67396;42.664;23.382;2024-03-07T17:02:32;30.77;;;11.80;;
78148;SDS011;67396;42.664;23.382;2024-03-07T17:04:59;24.80;;;12.18;;
78148;SDS011;67396;42.664;23.382;2024-03-07T17:07:29;24.52;;;11.23;;
78148;SDS011;67396;42.664;23.382;2024-03-07T17:09:58;22.00;;;11.38;;
78148;SDS011;67396;42.664;23.382;2024-03-07T17:12:24;22.92;;;10.50;;
78148;SDS011;67396;42.664;23.382;2024-03-07T17:14:50;17.88;;;8.30;;
78148;SDS011;67396;42.664;23.382;2024-03-07T17:17:16;9.80;;;4.75;;
78148;SDS011;67396;42.664;23.382;2024-03-07T17:19:41;7.47;;;4.05;;
78148;SDS011;67396;42.664;23.382;2024-03-07T17:22:07;6.80;;;3.10;;
78148;SDS011;67396;42.664;23.382;2024-03-07T17:24:36;3.67;;;2.53;;
78148;SDS011;67396;42.664;23.382;2024-03-07T17:27:01;4.20;;;2.50;;
78148;SDS011;67396;42.664;23.382;2024-03-07T17:29:30;3.30;;;2.13;;
78148;SDS011;67396;42.664;23.382;2024-03-07T17:31:57;3.05;;;2.25;;
78148;SDS011;67396;42.664;23.382;2024-03-07T17:34:24;3.17;;;1.80;;
78148;SDS011;67396;42.664;23.382;2024-03-07T17:36:50;2.00;;;1.35;;
78148;SDS011;67396;42.664;23.382;2024-03-07T17:39:15;3.53;;;1.73;;
78148;SDS011;67396;42.664;23.382;2024-03-07T17:41:41;2.28;;;1.15;;
78148;SDS011;67396;42.664;23.382;2024-03-07T17:44:07;2.60;;;1.45;;
78148;SDS011;67396;42.664;23.382;2024-03-07T17:46:40;2.65;;;1.33;;
78148;SDS011;67396;42.664;23.382;2024-03-07T17:49:06;3.30;;;1.55;;
78148;SDS011;67396;42.664;23.382;2024-03-07T17:51:32;2.22;;;1.42;;
78148;SDS011;67396;42.664;23.382;2024-03-07T17:53:59;5.03;;;1.52;;
78148;SDS011;67396;42.664;23.382;2024-03-07T17:56:29;2.42;;;1.38;;
78148;SDS011;67396;42.664;23.382;2024-03-07T17:58:59;3.03;;;1.33;;
78148;SDS011;67396;42.664;23.382;2024-03-07T18:01:32;3.90;;;1.30;;
78148;SDS011;67396;42.664;23.382;2024-03-07T18:03:57;2.53;;;1.40;;
78148;SDS011;67396;42.664;23.382;2024-03-07T18:06:23;5.75;;;1.70;;
78148;SDS011;67396;42.664;23.382;2024-03-07T18:08:49;3.53;;;1.80;;
78148;SDS011;67396;42.664;23.382;2024-03-07T18:11:18;3.25;;;1.65;;
78148;SDS011;67396;42.664;23.382;2024-03-07T18:13:44;3.50;;;2.17;;
78148;SDS011;67396;42.664;23.382;2024-03-07T18:16:14;3.20;;;1.83;;
78148;SDS011;67396;42.664;23.382;2024-03-07T18:18:40;4.38;;;1.80;;
78148;SDS011;67396;42.664;23.382;2024-03-07T18:21:08;3.20;;;2.00;;
78148;SDS011;67396;42.664;23.382;2024-03-07T18:23:34;12.68;;;2.97;;
78148;SDS011;67396;42.664;23.382;2024-03-07T18:26:02;4.05;;;1.65;;
78148;SDS011;67396;42.664;23.382;2024-03-07T18:28:33;5.00;;;2.30;;
78148;SDS011;67396;42.664;23.382;2024-03-07T18:31:05;4.10;;;2.20;;